Aviation Digital Data Service (ADDS)

Output produced by METARs form (0553 UTC 22 January 2017)
found at http://www.aviationweather.gov/adds/metars/
 
KBFD 220534Z AUTO 00000KT 1 3/4SM BR OVC075 07/07 A2970 RMK AO2 T00720072
KBFD 220514Z AUTO 00000KT 3SM BR OVC085 08/08 A2970 RMK AO2 T00780078
KBFD 220453Z AUTO 14003KT 1SM BR OVC095 07/07 A2970 RMK AO2 SLP060 T00720072 401440067
KBFD 220441Z AUTO 13003KT 1 1/2SM BR OVC100 07/07 A2971 RMK AO2 T00670067
KBFD 220426Z AUTO 14004KT 3SM BR BKN110 07/07 A2971 RMK AO2 T00670067
KBFD 220407Z AUTO 13003KT 1 3/4SM BR SCT120 07/07 A2971 RMK AO2 T00720072
KBFD 220353Z AUTO 15003KT 5SM BR FEW120 08/08 A2971 RMK AO2 SLP064 T00780078
KBFD 220339Z AUTO 13004KT 2SM BR SCT120 08/08 A2971 RMK AO2 T00780078
KBFD 220334Z AUTO 13004KT 3/4SM BR SCT120 08/08 A2971 RMK AO2 T00780078
KBFD 220325Z AUTO 13004KT 1 1/2SM BR FEW120 08/08 A2971 RMK AO2 T00780078
KBFD 220304Z AUTO 14004KT 5SM BR FEW029 FEW036 SCT120 07/07 A2972 RMK AO2 T00720072
KBFD 220253Z AUTO 14004KT 2SM BR FEW029 SCT036 BKN120 08/08 A2972 RMK AO2 VIS 3/4V5 SLP067 T00830083 58002
KBFD 220153Z AUTO 14004KT 7SM SCT030 BKN034 BKN047 08/08 A2973 RMK AO2 SLP072 T00830083
KBFD 220053Z AUTO 14004KT 10SM CLR 09/09 A2972 RMK AO2 SLP067 T00940089
KBFD 212353Z AUTO 13003KT 7SM FEW037 08/08 A2973 RMK AO2 SLP069 T00830083 10144 20083 53004
KBFD 212253Z AUTO 15003KT 10SM SCT034 BKN046 BKN055 11/09 A2972 RMK AO2 SLP065 T01110094
KBFD 212153Z AUTO 14003KT 10SM CLR 12/09 A2970 RMK AO2 SLP058 T01220094
KBFD 212053Z AUTO 18004KT 10SM FEW029 14/09 A2971 RMK AO2 SLP060 T01390094 56010
KBFD 211953Z AUTO 19006KT 10SM SCT027 SCT037 14/10 A2972 RMK AO2 SLP063 T01390100
KBFD 211853Z AUTO 17006KT 10SM FEW044 13/09 A2973 RMK AO2 SLP066 T01330094
KBFD 211753Z AUTO 20004KT 10SM OVC042 12/09 A2974 RMK AO2 SLP073 T01220089 10122 20078 58022
KBFD 211713Z AUTO 22004KT 10SM FEW009 FEW013 BKN033 12/09 A2977 RMK AO2 T01170094
KBFD 211653Z AUTO 20007KT 160V220 10SM SCT011 OVC032 11/10 A2977 RMK AO2 SLP083 T01110100
KBFD 211644Z AUTO 18005KT 10SM SCT006 SCT011 OVC032 10/09 A2978 RMK AO2 T01000094
KBFD 211621Z AUTO 16004KT 10SM OVC005 10/10 A2979 RMK AO2 CIG 002V007 T01000100
KBFD 211604Z AUTO VRB04KT 5SM BR OVC002 09/09 A2980 RMK AO2 T00940094
KBFD 211553Z AUTO 17005KT 2SM BR OVC002 09/09 A2980 RMK AO2 SLP094 T00890089
KBFD 211530Z AUTO 17007KT 1 1/4SM BR OVC002 09/09 A2981 RMK AO2 T00890089
KBFD 211519Z AUTO 16005KT 2SM BR OVC002 09/09 A2980 RMK AO2 T00890089
KBFD 211453Z AUTO VRB04KT 1SM BR OVC002 08/08 A2981 RMK AO2 SLP100 T00830083 58000
KBFD 211425Z AUTO 16004KT 1/2SM FG VV002 08/08 A2980 RMK AO2 T00830083
KBFD 211353Z AUTO 20005KT 1/4SM FG VV002 08/08 A2982 RMK AO2 SLP102 T00780078
KBFD 211313Z AUTO 17004KT 1/4SM FG VV002 08/08 A2981 RMK AO2 T00780078
KBFD 211253Z AUTO 18006KT 1/2SM FG OVC002 08/08 A2982 RMK AO2 SLP102 T00780078
KBFD 211222Z AUTO 19005KT 3/4SM BR VV002 08/08 A2982 RMK AO2 T00780078
KBFD 211158Z AUTO 18003KT 1 3/4SM BR OVC002 08/08 A2982 RMK AO2 T00780078
KBFD 211153Z AUTO 16003KT 3SM BR OVC002 08/08 A2982 RMK AO2 SLP102 70018 T00780078 10083 20078 56000
KBFD 211131Z AUTO 19003KT 5SM BR OVC004 08/08 A2981 RMK AO2 T00780078
KBFD 211119Z AUTO 20003KT 6SM BR OVC005 08/08 A2981 RMK AO2 T00780078
KBFD 211053Z AUTO 27003KT 7SM OVC004 08/08 A2982 RMK AO2 SLP103 T00830078
KBFD 210953Z AUTO 00000KT 7SM OVC004 08/08 A2981 RMK AO2 SLP101 T00830083
KBFD 210938Z AUTO 21004KT 6SM BR OVC004 08/08 A2981 RMK AO2 T00830083
KBFD 210853Z AUTO 21003KT 6SM BR OVC006 08/08 A2982 RMK AO2 CIG 004V008 SLP103 T00830083 50005
KBFD 210842Z AUTO 24004KT 6SM BR OVC006 08/08 A2982 RMK AO2 CIG 003V009 T00830083
KBFD 210817Z AUTO 23003KT 6SM BR OVC004 08/08 A2982 RMK AO2 CIG 002V007 T00830083
KBFD 210800Z AUTO 26004KT 3SM BR OVC002 08/08 A2982 RMK AO2 T00830083
KBFD 210753Z AUTO 00000KT 1 3/4SM BR OVC002 08/08 A2982 RMK AO2 SLP106 T00830083
KBFD 210744Z AUTO 00000KT 1 3/4SM BR OVC002 08/08 A2982 RMK AO2 T00830083
KBFD 210653Z AUTO VRB04KT 1/2SM FG VV002 08/08 A2981 RMK AO2 SLP102 T00830083
KBFD 210608Z AUTO VRB03KT 1/2SM FG VV002 08/08 A2980 RMK AO2 T00830083
KBFD 210553Z AUTO 22003KT 1/4SM FG VV002 08/08 A2980 RMK AO2 SLP099 60000 T00780078 10078 20056 51003
KBFD 210453Z AUTO 23003KT 1/4SM FG VV002 07/07 A2980 RMK AO2 SLP098 T00720072 400781006
KBFD 210448Z AUTO 22003KT 1/4SM FG VV002 07/07 A2980 RMK AO2
KBFD 210433Z AUTO VRB03KT 1/2SM FG VV002 07/07 A2979 RMK AO2 T00720072
KBFD 210421Z AUTO 00000KT 1 3/4SM BR OVC002 07/07 A2979 RMK AO2 T00720072
KBFD 210353Z AUTO 20004KT 6SM BR OVC002 07/07 A2979 RMK AO2 SLP096 T00720072
KBFD 210253Z AUTO 18003KT 6SM BR OVC002 07/07 A2978 RMK AO2 RAE04 SLP094 P0000 60000 T00670067 53004
KBFD 210220Z AUTO 00000KT 9SM OVC003 07/07 A2978 RMK AO2 RAE04 P0000 T00670067
KBFD 210153Z AUTO 00000KT 3SM -RA BR OVC002 07/07 A2977 RMK AO2 RAB50 SLP091 P0000 T00670067
KBFD 210144Z AUTO 00000KT 4SM BR OVC002 07/07 A2977 RMK AO2 T00670067
KBFD 210132Z AUTO 00000KT 2 1/2SM BR OVC002 07/07 A2977 RMK AO2 T00670067
KBFD 210122Z AUTO 22004KT 1 1/2SM BR OVC002 07/07 A2977 RMK AO2 T00670067
KBFD 210053Z AUTO 21004KT 1/2SM FG VV002 07/07 A2977 RMK AO2 SLP090 T00670067
KBFD 210049Z AUTO 00000KT 1/2SM FG VV002 07/07 A2977 RMK AO2
KBFD 210041Z AUTO 18004KT 1/4SM FG VV002 06/06 A2977 RMK AO2 T00610061
KBFD 202353Z AUTO 19004KT 1/2SM FG VV002 06/06 A2976 RMK AO2 SLP090 60007 T00560056 10056 20033 53009
KBFD 202308Z AUTO 16005KT 3/4SM BR VV002 05/05 A2975 RMK AO2 T00500050
KBFD 202253Z AUTO 17004KT 1SM BR OVC002 05/05 A2974 RMK AO2 SLP084 T00500050
KBFD 202212Z AUTO 17003KT 1 1/4SM BR OVC002 05/05 A2974 RMK AO2 T00500050
KBFD 202201Z AUTO 15003KT 1 1/4SM BR OVC003 04/04 A2973 RMK AO2 T00440044
KBFD 202153Z AUTO 16003KT 2SM BR OVC003 04/04 A2973 RMK AO2 RAE16 SLP082 P0000 T00440044
KBFD 202149Z AUTO 00000KT 3SM BR OVC003 04/04 A2973 RMK AO2 RAE16 P0000
KBFD 202142Z AUTO 17004KT 2 1/2SM BR OVC003 04/04 A2973 RMK AO2 RAE16 P0000 T00440044
KBFD 202112Z AUTO 16005KT 10SM -RA OVC004 04/04 A2973 RMK AO2 P0000 T00440044
KBFD 202053Z AUTO VRB06KT 7SM -RA OVC005 04/04 A2973 RMK AO2 SLP080 P0002 60007 T00440044 53005
KBFD 201953Z AUTO 16006KT 8SM -RA OVC005 04/04 A2972 RMK AO2 CIG 003V009 SLP076 P0004 T00390039
KBFD 201853Z AUTO 16007KT 6SM -RA BR OVC004 03/03 A2970 RMK AO2 SLP072 P0001 T00330033
KBFD 201814Z AUTO 15008KT 4SM -RA BR OVC004 03/03 A2971 RMK AO2 P0001 T00330033